Time;durP1;ratioP1;P1;durP2;ratioP2;P2;SDS_P1;SDS_P2;PMS_P1;PMS_P2;Temp;Humidity;BMP_temperature;BMP_pressure;BME280_temperature;BME280_humidity;BME280_pressure;Samples;Min_cycle;Max_cycle;Signal;HPM_P1;HPM_P2
2023/05/01 00:02:19;;;;;;;2.17;1.80;;;5.80;99.90;;;;;;5036902;28;20226;-82
2023/05/01 00:04:45;;;;;;;5.87;1.87;;;5.80;99.90;;;;;;5036331;28;20176;-82
2023/05/01 00:07:10;;;;;;;3.37;2.07;;;5.70;99.90;;;;;;5035499;28;20655;-82
2023/05/01 00:09:36;;;;;;;2.83;1.70;;;5.70;99.90;;;;;;5036270;28;20188;-82
2023/05/01 00:12:02;;;;;;;3.13;1.67;;;5.60;99.90;;;;;;5034980;28;20181;-82
2023/05/01 00:14:28;;;;;;;3.37;1.60;;;5.60;99.90;;;;;;5035085;28;20575;-81
2023/05/01 00:16:54;;;;;;;3.20;2.17;;;5.60;99.90;;;;;;5036292;28;20211;-82
2023/05/01 00:19:20;;;;;;;2.13;1.90;;;5.60;99.90;;;;;;5018693;28;20181;-81
2023/05/01 00:21:47;;;;;;;6.27;1.57;;;5.50;99.90;;;;;;5035123;28;20275;-81
2023/05/01 00:24:13;;;;;;;3.17;2.20;;;5.50;99.90;;;;;;5036024;28;20251;-82
2023/05/01 00:26:39;;;;;;;2.73;1.93;;;5.50;99.90;;;;;;5051547;28;20184;-81
2023/05/01 00:29:05;;;;;;;4.83;2.40;;;5.40;99.90;;;;;;5034956;28;20234;-82
2023/05/01 00:31:30;;;;;;;5.00;2.23;;;5.40;99.90;;;;;;5018374;28;20279;-82
2023/05/01 00:33:56;;;;;;;5.97;2.30;;;5.30;99.90;;;;;;5035623;28;20216;-83
2023/05/01 00:36:22;;;;;;;6.57;2.33;;;5.50;99.90;;;;;;5034948;28;20181;-81
2023/05/01 00:38:48;;;;;;;2.90;1.87;;;;;;;;;;5035367;28;20189;-82
2023/05/01 00:41:13;;;;;;;8.43;3.00;;;5.30;99.90;;;;;;5034495;28;20189;-81
2023/05/01 00:43:39;;;;;;;5.03;2.20;;;5.20;99.90;;;;;;5051171;28;20575;-81
2023/05/01 00:46:06;;;;;;;3.80;2.07;;;5.20;99.90;;;;;;5034616;28;20188;-81
2023/05/01 00:48:31;;;;;;;3.53;2.30;;;5.10;99.90;;;;;;5036139;28;20691;-82
2023/05/01 00:50:58;;;;;;;6.23;2.73;;;5.10;99.90;;;;;;5034433;28;20260;-85
2023/05/01 00:53:25;;;;;;;2.97;2.10;;;5.30;99.90;;;;;;5034341;28;20184;-81
2023/05/01 00:55:52;;;;;;;4.33;2.07;;;5.00;99.90;;;;;;5035765;28;20216;-80
2023/05/01 00:58:18;;;;;;;8.23;2.40;;;5.00;99.90;;;;;;5035031;28;20180;-81
2023/05/01 01:00:43;;;;;;;4.00;2.73;;;4.90;99.90;;;;;;5034363;28;20173;-81
2023/05/01 01:03:10;;;;;;;4.30;2.30;;;4.90;99.90;;;;;;5034111;28;20219;-81
2023/05/01 01:05:41;;;;;;;5.17;2.17;;;4.90;99.90;;;;;;5035554;28;20180;-81
2023/05/01 01:08:20;;;;;;;7.83;2.87;;;4.80;99.90;;;;;;5050742;28;20268;-82
2023/05/01 01:10:55;;;;;;;6.63;2.40;;;4.80;99.90;;;;;;5035607;28;20222;-82
2023/05/01 01:13:35;;;;;;;2.77;2.40;;;4.80;99.90;;;;;;5035066;28;20235;-82
2023/05/01 01:16:21;;;;;;;4.10;1.90;;;4.70;99.90;;;;;;5035230;28;20215;-83
2023/05/01 01:19:25;;;;;;;4.87;2.13;;;4.70;99.90;;;;;;5035545;28;20168;-82
2023/05/01 01:22:02;;;;;;;3.23;2.17;;;4.60;99.90;;;;;;5034130;28;20653;-82
2023/05/01 01:25:05;;;;;;;4.23;1.90;;;4.60;99.90;;;;;;5035601;28;20183;-83
2023/05/01 01:27:56;;;;;;;3.40;2.10;;;4.50;99.90;;;;;;5035303;28;20160;-83
2023/05/01 01:31:00;;;;;;;4.10;2.00;;;4.50;99.90;;;;;;5033692;28;20180;-83
2023/05/01 01:34:00;;;;;;;3.33;1.70;;;4.40;99.90;;;;;;5035246;28;20181;-83
2023/05/01 01:36:38;;;;;;;5.40;2.23;;;4.40;99.90;;;;;;5034935;28;20163;-83
2023/05/01 01:39:26;;;;;;;3.27;2.00;;;4.30;99.90;;;;;;5050116;28;20176;-84
2023/05/01 01:41:55;;;;;;;2.80;2.00;;;4.20;99.90;;;;;;5035021;28;20172;-83
2023/05/01 01:44:29;;;;;;;1.83;1.63;;;4.20;99.90;;;;;;5034249;28;20228;-83
2023/05/01 01:46:58;;;;;;;2.97;2.17;;;4.20;99.90;;;;;;5034923;28;20161;-83
2023/05/01 01:49:26;;;;;;;2.70;1.67;;;4.20;99.90;;;;;;5034140;28;20172;-82
2023/05/01 01:51:54;;;;;;;6.03;2.03;;;4.00;99.90;;;;;;5049945;28;20215;-81
2023/05/01 01:54:26;;;;;;;6.20;2.60;;;4.00;99.90;;;;;;5034493;28;20630;-82
2023/05/01 01:56:52;;;;;;;7.33;2.00;;;4.00;99.90;;;;;;5034905;28;20165;-81
2023/05/01 01:59:20;;;;;;;4.23;1.97;;;3.90;99.90;;;;;;5034344;28;20177;-80
2023/05/01 02:01:48;;;;;;;2.87;1.97;;;3.90;99.90;;;;;;5034490;28;20165;-81
2023/05/01 02:04:15;;;;;;;4.27;2.10;;;3.90;99.90;;;;;;5049133;28;20288;-84
2023/05/01 02:06:42;;;;;;;3.67;1.87;;;3.90;99.90;;;;;;5033183;28;20177;-83
2023/05/01 02:09:09;;;;;;;2.30;1.77;;;3.80;99.90;;;;;;5034001;28;20165;-87
2023/05/01 02:11:36;;;;;;;2.47;2.03;;;4.10;99.90;;;;;;5033557;28;20179;-83
2023/05/01 02:14:04;;;;;;;8.97;2.37;;;4.50;99.90;;;;;;5033823;28;20228;-82
2023/05/01 02:16:32;;;;;;;3.87;2.07;;;3.70;99.90;;;;;;5033663;28;20180;-82
2023/05/01 02:19:00;;;;;;;2.80;2.10;;;3.70;99.90;;;;;;5033909;28;20180;-82
2023/05/01 02:21:29;;;;;;;2.23;1.70;;;3.70;99.90;;;;;;5033937;28;20177;-82
2023/05/01 02:23:59;;;;;;;3.17;1.70;;;3.60;99.90;;;;;;5034193;28;20265;-82
2023/05/01 02:26:28;;;;;;;3.77;2.67;;;3.60;99.90;;;;;;5032479;28;20179;-82
2023/05/01 02:28:53;;;;;;;3.30;1.70;;;3.60;99.90;;;;;;5033688;28;20705;-82
2023/05/01 02:31:20;;;;;;;3.20;2.20;;;3.50;99.90;;;;;;5033804;28;20184;-82
2023/05/01 02:33:46;;;;;;;4.23;2.67;;;3.40;99.90;;;;;;5034021;28;20268;-83
2023/05/01 02:36:12;;;;;;;2.40;2.13;;;3.40;99.90;;;;;;5032427;28;20263;-85
2023/05/01 02:38:38;;;;;;;4.23;2.50;;;3.40;99.90;;;;;;5032497;28;20593;-83
2023/05/01 02:41:05;;;;;;;8.47;2.50;;;3.30;99.90;;;;;;5034053;28;20218;-83
2023/05/01 02:43:32;;;;;;;7.07;2.47;;;3.30;99.90;;;;;;5032316;28;20211;-83
2023/05/01 02:46:00;;;;;;;5.30;2.77;;;4.80;99.90;;;;;;5033759;28;20724;-83
2023/05/01 02:48:27;;;;;;;10.30;3.00;;;3.20;99.90;;;;;;5033455;28;20172;-83
2023/05/01 02:50:55;;;;;;;9.37;3.53;;;3.20;99.90;;;;;;5033591;28;20291;-83
2023/05/01 02:53:21;;;;;;;7.20;3.80;;;3.10;99.90;;;;;;5033441;28;20177;-83
2023/05/01 02:55:48;;;;;;;9.07;3.97;;;4.60;99.90;;;;;;5033637;28;20181;-82
2023/05/01 02:58:18;;;;;;;6.63;3.23;;;3.70;99.90;;;;;;5031885;28;20263;-86
2023/05/01 03:00:44;;;;;;;7.97;3.60;;;3.00;99.90;;;;;;5048905;28;20279;-82
2023/05/01 03:03:10;;;;;;;7.80;3.83;;;4.60;99.90;;;;;;5032089;28;20614;-82
2023/05/01 03:05:37;;;;;;;6.43;3.17;;;3.00;99.90;;;;;;5032117;28;20233;-82
2023/05/01 03:08:03;;;;;;;6.97;3.23;;;2.90;99.90;;;;;;5033231;28;20263;-83
2023/05/01 03:10:29;;;;;;;7.10;3.33;;;2.90;99.90;;;;;;5015511;28;20283;-82
2023/05/01 03:12:55;;;;;;;13.20;4.70;;;2.90;99.90;;;;;;5031950;28;20251;-82
2023/05/01 03:15:20;;;;;;;10.17;4.17;;;2.90;99.90;;;;;;5032216;28;20180;-82
2023/05/01 03:17:46;;;;;;;7.53;4.63;;;2.80;99.90;;;;;;5048414;28;20634;-81
2023/05/01 03:20:12;;;;;;;6.67;4.07;;;2.90;99.90;;;;;;5031917;28;20283;-82
2023/05/01 03:22:38;;;;;;;9.07;3.97;;;2.80;99.90;;;;;;5015278;28;20258;-81
2023/05/01 03:25:04;;;;;;;4.90;3.20;;;2.90;99.90;;;;;;5033179;28;20246;-82
2023/05/01 03:27:30;;;;;;;6.90;3.50;;;2.90;99.90;;;;;;5031679;28;20180;-82
2023/05/01 03:29:56;;;;;;;9.87;3.93;;;3.10;99.90;;;;;;5031656;28;20191;-82
2023/05/01 03:32:23;;;;;;;6.00;3.50;;;2.80;99.90;;;;;;5031710;28;20200;-81
2023/05/01 03:34:48;;;;;;;5.47;3.20;;;2.90;99.90;;;;;;5033121;28;20590;-82
2023/05/01 03:37:14;;;;;;;5.53;3.23;;;2.90;99.90;;;;;;5031988;28;20180;-82
2023/05/01 03:39:40;;;;;;;7.63;2.67;;;3.40;99.90;;;;;;5031712;28;20540;-82
2023/05/01 03:42:06;;;;;;;4.10;2.83;;;3.10;99.90;;;;;;5032054;28;20189;-84
2023/05/01 03:44:32;;;;;;;5.10;3.03;;;2.90;99.90;;;;;;5032360;28;20231;-82
2023/05/01 03:46:57;;;;;;;6.33;3.30;;;3.00;99.90;;;;;;5031762;28;20231;-81
2023/05/01 03:49:23;;;;;;;4.57;2.90;;;3.00;99.90;;;;;;5048158;28;20191;-83
2023/05/01 03:51:49;;;;;;;5.90;3.63;;;3.10;99.90;;;;;;5032962;28;20213;-82
2023/05/01 03:54:15;;;;;;;5.87;2.57;;;3.10;99.90;;;;;;5031794;28;20548;-82
2023/05/01 03:56:40;;;;;;;15.13;3.53;;;3.10;99.90;;;;;;5032657;28;20180;-83
2023/05/01 03:59:06;;;;;;;5.80;2.60;;;3.20;99.90;;;;;;5033317;28;20177;-82
2023/05/01 04:01:35;;;;;;;4.77;2.90;;;3.20;99.90;;;;;;5031645;28;20242;-83
2023/05/01 04:04:01;;;;;;;8.10;3.63;;;3.30;99.90;;;;;;5031819;28;20689;-82
2023/05/01 04:06:27;;;;;;;4.90;3.07;;;3.50;99.90;;;;;;5031571;28;20211;-83
2023/05/01 04:08:52;;;;;;;6.70;2.83;;;3.80;99.90;;;;;;5032678;28;20259;-82
2023/05/01 04:11:18;;;;;;;7.03;3.03;;;3.50;99.90;;;;;;5032542;28;20189;-82
2023/05/01 04:13:44;;;;;;;4.20;3.00;;;3.70;99.90;;;;;;5035615;28;20228;-81
2023/05/01 04:16:10;;;;;;;5.30;2.93;;;4.60;99.90;;;;;;5037062;28;20643;-81
2023/05/01 04:18:35;;;;;;;8.40;4.10;;;4.00;99.90;;;;;;5038982;28;20631;-83
2023/05/01 04:21:01;;;;;;;9.00;4.60;;;4.40;99.90;;;;;;5041289;28;20199;-83
2023/05/01 04:23:27;;;;;;;8.50;4.43;;;4.40;99.90;;;;;;5022021;28;20258;-82
2023/05/01 04:25:52;;;;;;;7.50;4.40;;;4.50;99.90;;;;;;5034460;28;20584;-82
2023/05/01 04:28:18;;;;;;;9.47;4.27;;;4.60;99.90;;;;;;5031624;28;20200;-83
2023/05/01 04:30:44;;;;;;;11.47;4.07;;;5.40;99.90;;;;;;5033190;28;20180;-83
2023/05/01 04:33:10;;;;;;;7.10;4.37;;;4.80;99.90;;;;;;5034261;28;20200;-83
2023/05/01 04:35:39;;;;;;;8.43;3.77;;;5.00;99.90;;;;;;5039200;28;20582;-83
2023/05/01 04:38:06;;;;;;;8.33;3.87;;;5.10;99.90;;;;;;5038946;28;20176;-83
2023/05/01 04:40:31;;;;;;;6.97;3.70;;;5.20;99.90;;;;;;5035492;28;20526;-82
2023/05/01 04:42:57;;;;;;;9.67;4.50;;;5.30;99.90;;;;;;5036114;28;20226;-83
2023/05/01 04:45:22;;;;;;;6.73;4.10;;;5.40;99.90;;;;;;5035679;28;20188;-83
2023/05/01 04:47:48;;;;;;;9.27;4.07;;;5.60;99.90;;;;;;5034431;28;20649;-83
2023/05/01 04:50:14;;;;;;;6.07;3.40;;;5.70;99.90;;;;;;5035801;28;20180;-81
2023/05/01 04:52:39;;;;;;;9.40;4.00;;;5.80;99.90;;;;;;5017835;28;20666;-82
2023/05/01 04:55:06;;;;;;;7.73;3.90;;;6.00;99.90;;;;;;5035867;28;20177;-84
2023/05/01 04:57:31;;;;;;;5.50;2.90;;;6.10;99.90;;;;;;5034271;28;20254;-86
2023/05/01 04:59:57;;;;;;;4.63;3.67;;;6.10;99.90;;;;;;5035687;28;20642;-86
2023/05/01 05:02:23;;;;;;;16.33;5.63;;;6.30;99.90;;;;;;5035370;28;20589;-85
2023/05/01 05:04:49;;;;;;;10.93;4.30;;;6.40;99.90;;;;;;5050739;28;20654;-86
2023/05/01 05:07:15;;;;;;;6.47;3.13;;;6.50;99.90;;;;;;5034259;28;20662;-84
2023/05/01 05:09:41;;;;;;;4.77;2.73;;;6.70;99.90;;;;;;5035222;28;20267;-85
2023/05/01 05:12:06;;;;;;;5.33;2.47;;;6.80;99.90;;;;;;5035899;28;20181;-84
2023/05/01 05:14:32;;;;;;;8.27;2.70;;;6.90;99.90;;;;;;5034171;28;20233;-84
2023/05/01 05:16:58;;;;;;;5.57;2.17;;;8.60;99.90;;;;;;5034460;28;20184;-84
2023/05/01 05:19:23;;;;;;;5.63;2.60;;;7.10;99.90;;;;;;5034957;28;20180;-84
2023/05/01 05:21:49;;;;;;;3.83;1.90;;;7.20;99.90;;;;;;5034864;28;20230;-82
2023/05/01 05:24:14;;;;;;;3.30;1.90;;;7.20;99.90;;;;;;5033256;28;20246;-83
2023/05/01 05:26:40;;;;;;;6.77;2.33;;;7.30;99.90;;;;;;5049968;28;20272;-85
2023/05/01 05:29:06;;;;;;;5.83;1.90;;;7.50;99.90;;;;;;5034391;28;20307;-84
2023/05/01 05:31:31;;;;;;;7.73;2.23;;;7.60;99.90;;;;;;5032968;28;20616;-83
2023/05/01 05:33:57;;;;;;;3.30;1.97;;;7.80;99.90;;;;;;5016311;28;20582;-83
2023/05/01 05:36:23;;;;;;;5.83;1.80;;;7.90;99.30;;;;;;5034130;28;20195;-84
2023/05/01 05:38:49;;;;;;;3.87;1.50;;;7.90;99.50;;;;;;5033507;28;20628;-84
2023/05/01 05:41:15;;;;;;;9.00;2.27;;;8.00;98.40;;;;;;5033785;28;20196;-84
2023/05/01 05:43:41;;;;;;;2.70;1.73;;;8.10;97.50;;;;;;5032528;28;20215;-84
2023/05/01 05:46:06;;;;;;;5.67;1.70;;;8.10;96.10;;;;;;5014907;28;20263;-83
2023/05/01 05:48:32;;;;;;;3.60;1.77;;;8.00;95.60;;;;;;5033702;28;20184;-85
2023/05/01 05:50:58;;;;;;;3.63;2.43;;;8.10;96.20;;;;;;5034232;28;20215;-84
2023/05/01 05:53:24;;;;;;;4.20;1.90;;;8.20;95.80;;;;;;5032382;28;20270;-85
2023/05/01 05:55:50;;;;;;;7.80;2.20;;;8.30;95.00;;;;;;5033440;28;20639;-84
2023/05/01 05:58:18;;;;;;;4.27;2.20;;;8.40;94.20;;;;;;5033193;28;20181;-86
2023/05/01 06:00:48;;;;;;;5.73;1.97;;;8.50;93.90;;;;;;5033852;28;20177;-87
2023/05/01 06:03:15;;;;;;;4.90;2.17;;;8.50;93.80;;;;;;5033639;28;20223;-85
2023/05/01 06:05:42;;;;;;;5.23;1.60;;;8.60;94.30;;;;;;5031827;28;20184;-85
2023/05/01 06:08:09;;;;;;;4.20;2.10;;;8.70;93.80;;;;;;5033181;28;20230;-83
2023/05/01 06:10:38;;;;;;;3.10;2.03;;;8.80;93.50;;;;;;5033864;28;20173;-84
2023/05/01 06:13:08;;;;;;;2.93;1.77;;;8.80;93.10;;;;;;5032866;28;20777;-87
2023/05/01 06:15:37;;;;;;;2.63;1.83;;;9.00;92.30;;;;;;5032339;28;20670;-84
2023/05/01 06:18:03;;;;;;;5.80;2.30;;;8.90;93.00;;;;;;5032241;28;20267;-85
2023/05/01 06:20:29;;;;;;;5.63;2.33;;;9.00;92.80;;;;;;5035962;28;20227;-84
2023/05/01 06:22:56;;;;;;;3.30;2.17;;;9.20;92.00;;;;;;5016627;28;20204;-84
2023/05/01 06:25:22;;;;;;;4.70;2.53;;;9.20;91.50;;;;;;5030518;28;20191;-83
2023/05/01 06:27:49;;;;;;;4.37;2.43;;;9.20;91.40;;;;;;5031380;28;20268;-82
2023/05/01 06:30:15;;;;;;;2.88;2.08;;;9.30;90.80;;;;;;5049826;28;20189;-85
2023/05/01 06:32:42;;;;;;;4.00;1.80;;;9.40;90.80;;;;;;5030839;28;20227;-85
2023/05/01 06:35:08;;;;;;;1.98;1.63;;;9.40;90.60;;;;;;5031486;28;20173;-85
2023/05/01 06:37:34;;;;;;;5.23;1.80;;;9.50;88.30;;;;;;5032287;28;20275;-83
2023/05/01 06:40:00;;;;;;;2.40;1.65;;;9.50;88.10;;;;;;5034012;28;20697;-83
2023/05/01 06:42:26;;;;;;;4.00;1.85;;;9.50;88.10;;;;;;5031396;28;20180;-84
2023/05/01 06:44:52;;;;;;;4.68;1.85;;;9.60;90.00;;;;;;5032422;28;20177;-86
2023/05/01 06:47:17;;;;;;;5.18;1.98;;;9.70;88.90;;;;;;5031957;28;20184;-85
2023/05/01 06:49:43;;;;;;;4.38;2.00;;;9.60;89.30;;;;;;5031654;28;20268;-84
2023/05/01 06:52:09;;;;;;;2.65;1.75;;;9.70;88.20;;;;;;5032558;28;20241;-84
2023/05/01 06:54:34;;;;;;;4.88;1.67;;;9.70;84.50;;;;;;5031594;28;20275;-84
2023/05/01 06:57:00;;;;;;;4.22;2.25;;;9.90;88.20;;;;;;5031046;28;20192;-85
2023/05/01 06:59:26;;;;;;;8.60;1.85;;;9.90;90.40;;;;;;5015014;28;20184;-84
2023/05/01 07:01:52;;;;;;;5.00;1.95;;;10.00;87.40;;;;;;5031047;28;20584;-84
2023/05/01 07:04:17;;;;;;;6.53;2.05;;;10.00;84.40;;;;;;5031018;28;20240;-85
2023/05/01 07:06:43;;;;;;;3.95;2.08;;;10.10;83.50;;;;;;5032773;28;20198;-84
2023/05/01 07:09:10;;;;;;;6.03;1.85;;;10.10;85.20;;;;;;5030947;28;20575;-85
2023/05/01 07:11:37;;;;;;;4.05;2.03;;;10.10;81.70;;;;;;5031998;28;20185;-84
2023/05/01 07:14:02;;;;;;;7.30;2.30;;;9.70;81.50;;;;;;5031675;28;20265;-84
2023/05/01 07:16:28;;;;;;;4.18;2.53;;;9.80;85.60;;;;;;5032112;28;20177;-84
2023/05/01 07:18:54;;;;;;;4.38;2.08;;;10.00;80.50;;;;;;5030626;28;20176;-85
2023/05/01 07:21:20;;;;;;;2.58;1.50;;;10.00;80.10;;;;;;5032554;28;20176;-84
2023/05/01 07:23:45;;;;;;;3.28;1.73;;;10.20;80.80;;;;;;5014525;28;20222;-84
2023/05/01 07:26:11;;;;;;;4.72;2.05;;;10.30;82.20;;;;;;5032261;28;20268;-82
2023/05/01 07:28:37;;;;;;;3.33;1.75;;;10.50;82.00;;;;;;5030683;28;20553;-84
2023/05/01 07:31:03;;;;;;;8.93;2.25;;;10.60;79.50;;;;;;5030854;28;20205;-83
2023/05/01 07:33:29;;;;;;;4.53;2.05;;;10.60;79.30;;;;;;5031913;28;20196;-85
2023/05/01 07:35:56;;;;;;;2.67;1.60;;;10.80;80.70;;;;;;5030657;28;20191;-85
2023/05/01 07:38:22;;;;;;;2.70;1.55;;;10.80;78.00;;;;;;5030788;28;20199;-85
2023/05/01 07:40:52;;;;;;;2.70;1.92;;;10.90;77.40;;;;;;5029738;28;20626;-84
2023/05/01 07:43:18;;;;;;;4.97;1.80;;;11.10;79.70;;;;;;5024275;28;20287;-84
2023/05/01 07:45:58;;;;;;;2.30;1.38;;;11.30;75.70;;;;;;5029484;28;20306;-85
2023/05/01 07:48:25;;;;;;;4.28;1.92;;;11.40;75.20;;;;;;5044813;28;20180;-85
2023/05/01 07:50:52;;;;;;;5.35;2.05;;;11.40;76.10;;;;;;5030786;28;20177;-84
2023/05/01 07:53:17;;;;;;;8.23;2.10;;;11.20;76.70;;;;;;5030739;28;20185;-85
2023/05/01 07:55:43;;;;;;;6.32;2.00;;;11.30;75.40;;;;;;5030519;28;20562;-85
2023/05/01 07:58:09;;;;;;;3.60;1.95;;;11.50;75.40;;;;;;5029142;28;20271;-86
2023/05/01 08:00:35;;;;;;;4.68;2.15;;;11.60;74.00;;;;;;5030686;28;20192;-83
2023/05/01 08:03:01;;;;;;;7.28;1.88;;;11.60;74.60;;;;;;5012502;28;20219;-84
2023/05/01 08:05:27;;;;;;;5.88;1.73;;;11.80;74.80;;;;;;5030833;28;20207;-86
2023/05/01 08:07:52;;;;;;;5.70;1.65;;;11.90;73.30;;;;;;5030302;28;20172;-85
2023/05/01 08:10:18;;;;;;;4.85;2.10;;;11.50;72.40;;;;;;5016161;28;20350;-84
2023/05/01 08:12:44;;;;;;;5.82;1.85;;;11.30;72.90;;;;;;5034004;28;20257;-84
2023/05/01 08:15:10;;;;;;;5.10;2.38;;;11.50;75.00;;;;;;5032916;28;20631;-84
2023/05/01 08:17:36;;;;;;;2.78;1.42;;;11.80;75.00;;;;;;5033315;28;20176;-84
2023/05/01 08:20:03;;;;;;;7.32;1.85;;;11.90;74.00;;;;;;5033850;28;20177;-84
2023/05/01 08:22:28;;;;;;;3.25;1.58;;;12.10;73.30;;;;;;5034306;28;20206;-85
2023/05/01 08:24:55;;;;;;;2.10;1.42;;;12.20;72.10;;;;;;5032982;28;20682;-85
2023/05/01 08:27:20;;;;;;;1.90;1.27;;;12.20;69.50;;;;;;5016470;28;20552;-85
2023/05/01 08:29:46;;;;;;;3.20;2.13;;;12.00;66.80;;;;;;5033012;28;20176;-85
2023/05/01 08:32:13;;;;;;;3.38;1.83;;;11.80;70.20;;;;;;5016194;28;20270;-85
2023/05/01 08:34:39;;;;;;;5.07;1.83;;;11.90;71.20;;;;;;5032893;28;20189;-83
2023/05/01 08:37:05;;;;;;;4.57;1.88;;;12.10;71.90;;;;;;5032454;28;20512;-85
2023/05/01 08:39:32;;;;;;;4.20;1.42;;;12.30;71.90;;;;;;5033275;28;20191;-87
2023/05/01 08:41:58;;;;;;;2.30;1.45;;;12.40;71.60;;;;;;5015692;28;20280;-87
2023/05/01 08:44:25;;;;;;;5.38;2.05;;;12.50;68.50;;;;;;5033399;28;20204;-84
2023/05/01 08:47:11;;;;;;;3.63;1.88;;;12.30;71.40;;;;;;5015690;28;20193;-84
2023/05/01 08:49:42;;;;;;;8.15;1.67;;;12.10;67.80;;;;;;5031018;28;20626;-83
2023/05/01 08:52:10;;;;;;;3.90;1.70;;;12.10;68.90;;;;;;5032591;28;20204;-84
2023/05/01 08:54:38;;;;;;;3.25;1.80;;;12.10;68.50;;;;;;5031174;28;20173;-83
2023/05/01 08:57:07;;;;;;;2.85;1.67;;;12.10;68.00;;;;;;5033335;28;20223;-84
2023/05/01 08:59:34;;;;;;;2.72;2.05;;;12.10;70.30;;;;;;5033475;28;20184;-84
2023/05/01 09:02:04;;;;;;;3.40;1.90;;;12.50;70.60;;;;;;5033125;28;20263;-86
2023/05/01 09:04:36;;;;;;;2.75;1.80;;;12.80;70.40;;;;;;5030947;28;20607;-84
2023/05/01 09:07:02;;;;;;;2.15;1.50;;;13.10;69.10;;;;;;5031586;28;20196;-83
2023/05/01 09:09:29;;;;;;;2.53;1.67;;;12.80;63.70;;;;;;5019540;28;20196;-83
2023/05/01 09:12:20;;;;;;;2.10;1.70;;;12.70;65.30;;;;;;5018178;28;20172;-85
2023/05/01 09:14:46;;;;;;;3.42;2.00;;;12.90;67.40;;;;;;5012310;28;20246;-84
2023/05/01 09:17:13;;;;;;;2.97;1.50;;;13.00;67.70;;;;;;4982250;28;20523;-84
2023/05/01 09:19:39;;;;;;;5.13;2.20;;;13.10;65.90;;;;;;5007204;28;20189;-83
2023/05/01 09:22:06;;;;;;;4.35;2.10;;;13.30;69.10;;;;;;5027046;28;20177;-85
2023/05/01 09:24:32;;;;;;;3.80;1.60;;;13.30;65.50;;;;;;5007390;28;20212;-85
2023/05/01 09:26:58;;;;;;;6.18;2.00;;;13.30;65.60;;;;;;4990260;28;20184;-84
2023/05/01 09:29:46;;;;;;;3.10;1.63;;;13.30;63.20;;;;;;4998710;28;20190;-87
2023/05/01 09:32:29;;;;;;;3.53;1.70;;;13.10;62.40;;;;;;4997139;28;20224;-86
2023/05/01 09:35:09;;;;;;;3.50;1.83;;;13.20;63.40;;;;;;5015193;28;20257;-86
2023/05/01 09:37:35;;;;;;;3.55;1.98;;;13.30;61.20;;;;;;5013046;28;20203;-85
2023/05/01 09:40:12;;;;;;;4.20;1.90;;;13.40;62.60;;;;;;5016230;28;20261;-85
2023/05/01 09:42:51;;;;;;;4.05;1.67;;;13.60;62.00;;;;;;4998405;28;20344;-83
2023/05/01 09:45:18;;;;;;;1.98;1.42;;;14.00;61.60;;;;;;5027713;28;20178;-85
2023/05/01 09:47:46;;;;;;;2.38;1.67;;;14.10;65.30;;;;;;4984829;28;20182;-84
2023/05/01 09:50:33;;;;;;;3.40;1.60;;;14.30;62.30;;;;;;4995697;28;20239;-84
2023/05/01 09:53:05;;;;;;;4.07;1.40;;;14.60;61.20;;;;;;4989996;28;20185;-84
2023/05/01 09:55:31;;;;;;;10.55;1.92;;;14.70;64.40;;;;;;4995919;28;20312;-84
2023/05/01 09:58:00;;;;;;;4.00;1.90;;;14.90;62.90;;;;;;5012183;28;20174;-83
2023/05/01 10:00:26;;;;;;;4.53;1.45;;;15.00;63.80;;;;;;4994017;28;20239;-84
2023/05/01 10:02:52;;;;;;;3.75;1.70;;;15.30;62.70;;;;;;5011919;28;20675;-85
2023/05/01 10:05:18;;;;;;;4.22;1.70;;;15.40;61.60;;;;;;5013152;28;20181;-86
2023/05/01 10:08:03;;;;;;;3.63;1.90;;;15.50;62.40;;;;;;4996416;28;20180;-86
2023/05/01 10:10:29;;;;;;;3.13;1.45;;;15.60;58.50;;;;;;5014129;28;20327;-86
2023/05/01 10:12:55;;;;;;;5.82;1.60;;;15.50;60.90;;;;;;5017459;28;21760;-89
2023/05/01 10:15:21;;;;;;;3.40;1.95;;;15.60;58.30;;;;;;5036758;28;20175;-87
2023/05/01 10:17:52;;;;;;;6.05;1.48;;;15.50;58.00;;;;;;5035303;28;20184;-84
2023/05/01 10:20:18;;;;;;;3.92;1.77;;;15.70;59.60;;;;;;5034653;28;20165;-84
2023/05/01 10:22:43;;;;;;;2.45;1.50;;;16.00;57.80;;;;;;5032739;28;20185;-83
2023/05/01 10:25:11;;;;;;;4.63;1.70;;;15.80;57.70;;;;;;5034533;28;20188;-84
2023/05/01 10:27:39;;;;;;;3.85;1.50;;;16.10;58.20;;;;;;5033119;28;20242;-84
2023/05/01 10:30:06;;;;;;;3.10;1.52;;;16.00;60.60;;;;;;5034046;28;20171;-83
2023/05/01 10:32:32;;;;;;;3.40;1.45;;;15.90;58.10;;;;;;5031774;28;20316;-84
2023/05/01 10:35:03;;;;;;;3.47;1.60;;;16.00;56.70;;;;;;5032470;28;20215;-85
2023/05/01 10:37:33;;;;;;;2.58;1.58;;;16.00;59.40;;;;;;5049005;28;20192;-84
2023/05/01 10:39:59;;;;;;;3.75;1.42;;;16.20;55.10;;;;;;5037720;28;20172;-85
2023/05/01 10:42:25;;;;;;;2.13;1.38;;;16.10;58.50;;;;;;5034038;28;20639;-85
2023/05/01 10:44:50;;;;;;;2.03;1.50;;;16.20;56.00;;;;;;5038918;28;20220;-85
2023/05/01 10:47:30;;;;;;;3.80;1.48;;;16.40;59.10;;;;;;5037444;28;20181;-85
2023/05/01 10:50:06;;;;;;;2.60;1.45;;;16.40;56.10;;;;;;5032252;28;20181;-84
2023/05/01 10:53:13;;;;;;;3.78;1.48;;;16.50;56.70;;;;;;5033878;28;20169;-85
2023/05/01 10:55:46;;;;;;;3.28;1.60;;;16.40;54.90;;;;;;5038318;28;20242;-85
2023/05/01 10:58:13;;;;;;;2.38;1.45;;;16.30;56.80;;;;;;5039117;28;20232;-85
2023/05/01 11:00:40;;;;;;;1.95;1.48;;;16.20;54.90;;;;;;5035964;28;20181;-86
2023/05/01 11:03:21;;;;;;;1.85;1.42;;;16.40;55.60;;;;;;5018430;28;20209;-85
2023/05/01 11:05:58;;;;;;;5.38;1.48;;;16.50;52.50;;;;;;5032147;28;20275;-85
2023/05/01 11:08:33;;;;;;;2.83;1.60;;;16.30;56.30;;;;;;5032830;28;20180;-85
2023/05/01 11:11:20;;;;;;;2.55;1.35;;;16.80;58.10;;;;;;5033337;28;20217;-85
2023/05/01 11:13:58;;;;;;;2.10;1.02;;;16.70;53.90;;;;;;5023911;28;20248;-85
2023/05/01 11:16:42;;;;;;;6.90;2.00;;;16.80;53.40;;;;;;5033234;28;20710;-85
2023/05/01 11:19:20;;;;;;;1.35;1.23;;;16.90;56.10;;;;;;5032158;28;20169;-85
2023/05/01 11:21:47;;;;;;;3.30;1.70;;;16.60;51.20;;;;;;5033289;28;20627;-85
2023/05/01 11:24:13;;;;;;;2.22;1.13;;;16.30;54.40;;;;;;5048503;28;20230;-85
2023/05/01 11:26:41;;;;;;;3.40;1.30;;;16.20;53.40;;;;;;5048723;28;20240;-85
2023/05/01 11:29:09;;;;;;;2.10;1.30;;;16.30;53.10;;;;;;5049102;28;20184;-86
2023/05/01 11:31:35;;;;;;;3.38;1.70;;;16.70;54.20;;;;;;5031582;28;20580;-85
2023/05/01 11:34:02;;;;;;;3.00;1.30;;;16.70;52.70;;;;;;5049096;28;20187;-85
2023/05/01 11:36:28;;;;;;;5.18;1.48;;;17.00;54.50;;;;;;5033487;28;20173;-85
2023/05/01 11:38:57;;;;;;;2.92;1.85;;;17.10;55.90;;;;;;5034610;28;20176;-84
2023/05/01 11:41:24;;;;;;;2.95;1.52;;;17.40;53.70;;;;;;5033823;28;20207;-85
2023/05/01 11:43:58;;;;;;;3.22;0.93;;;17.70;53.30;;;;;;5037260;28;20204;-85
2023/05/01 11:46:32;;;;;;;3.60;1.52;;;17.40;50.70;;;;;;5038934;28;20176;-88
2023/05/01 11:49:02;;;;;;;3.40;1.40;;;17.20;51.90;;;;;;5055361;28;20534;-86
2023/05/01 11:51:29;;;;;;;4.50;1.63;;;17.20;51.20;;;;;;5040508;28;20191;-86
2023/05/01 11:54:01;;;;;;;1.77;1.20;;;16.90;50.30;;;;;;5040543;28;20773;-85
2023/05/01 11:56:28;;;;;;;5.93;1.83;;;16.80;50.60;;;;;;5043464;28;20172;-87
2023/05/01 11:58:59;;;;;;;1.20;1.05;;;16.90;52.50;;;;;;5040238;28;20201;-86
2023/05/01 12:01:43;;;;;;;2.03;1.13;;;17.20;50.50;;;;;;5039027;28;20223;-85
2023/05/01 12:04:09;;;;;;;7.10;1.40;;;17.50;49.30;;;;;;5056400;28;20207;-90
2023/05/01 12:06:43;;;;;;;3.78;1.90;;;17.60;50.10;;;;;;5040384;28;20208;-88
2023/05/01 12:09:16;;;;;;;5.32;1.55;;;17.40;49.50;;;;;;5056395;28;20183;-88
2023/05/01 12:11:43;;;;;;;2.00;1.67;;;17.30;50.20;;;;;;5039209;28;20183;-85
2023/05/01 12:14:09;;;;;;;1.10;0.95;;;17.10;51.20;;;;;;5040814;28;20228;-86
2023/05/01 12:16:36;;;;;;;4.07;1.40;;;17.20;53.40;;;;;;5055353;28;20263;-86
2023/05/01 12:19:03;;;;;;;2.47;1.23;;;17.30;51.20;;;;;;5037528;28;20586;-86
2023/05/01 12:21:30;;;;;;;3.42;1.35;;;17.60;52.50;;;;;;5038463;28;20169;-84
2023/05/01 12:24:06;;;;;;;2.08;1.27;;;17.90;51.30;;;;;;5038006;28;20712;-85
2023/05/01 12:26:31;;;;;;;4.68;1.88;;;18.00;50.40;;;;;;5040297;28;20165;-86
2023/05/01 12:29:02;;;;;;;3.15;1.60;;;17.60;51.40;;;;;;5039365;28;20202;-86
2023/05/01 12:31:29;;;;;;;3.28;1.52;;;17.70;52.40;;;;;;5038032;28;20185;-87
2023/05/01 12:33:57;;;;;;;2.67;1.38;;;17.80;51.70;;;;;;5036728;28;20181;-87
2023/05/01 12:36:24;;;;;;;2.35;1.33;;;18.10;53.60;;;;;;5037190;28;20208;-85
2023/05/01 12:39:11;;;;;;;2.42;1.58;;;18.50;52.80;;;;;;5036223;28;20176;-85
2023/05/01 12:41:40;;;;;;;3.92;1.50;;;18.90;53.50;;;;;;5036635;28;20180;-86
2023/05/01 12:44:25;;;;;;;3.05;1.23;;;19.10;51.30;;;;;;5038816;28;20303;-87
2023/05/01 12:47:05;;;;;;;2.45;1.23;;;19.10;49.10;;;;;;5037064;28;20586;-86
2023/05/01 12:49:31;;;;;;;5.13;2.00;;;18.70;50.60;;;;;;5040119;28;20175;-87
2023/05/01 12:51:59;;;;;;;4.32;2.22;;;18.60;50.60;;;;;;5054056;28;20256;-87
2023/05/01 12:54:29;;;;;;;2.42;1.45;;;18.90;51.00;;;;;;5053057;28;20613;-87
2023/05/01 12:57:24;;;;;;;2.30;1.17;;;19.10;50.30;;;;;;5038144;28;20180;-87
2023/05/01 12:59:58;;;;;;;2.35;1.40;;;18.30;48.30;;;;;;5024428;28;20208;-87
2023/05/01 13:02:30;;;;;;;2.10;1.23;;;18.10;48.50;;;;;;5035864;28;20165;-87